sensor_id;sensor_type;location;lat;lon;timestamp;pressure;altitude;pressure_sealevel;temperature
42197;BMP280;27866;48.146;17.098;2023-01-10T00:02:45;98629.34;;;9.23
42197;BMP280;27866;48.146;17.098;2023-01-10T00:06:56;98634.78;;;9.20
42197;BMP280;27866;48.146;17.098;2023-01-10T00:11:08;98637.38;;;9.20
42197;BMP280;27866;48.146;17.098;2023-01-10T00:15:38;98648.75;;;9.17
42197;BMP280;27866;48.146;17.098;2023-01-10T00:19:50;98651.69;;;9.13
42197;BMP280;27866;48.146;17.098;2023-01-10T00:24:01;98656.28;;;9.10
42197;BMP280;27866;48.146;17.098;2023-01-10T00:28:45;98653.56;;;9.11
42197;BMP280;27866;48.146;17.098;2023-01-10T00:32:56;98653.69;;;9.10
42197;BMP280;27866;48.146;17.098;2023-01-10T00:37:07;98667.44;;;9.10
42197;BMP280;27866;48.146;17.098;2023-01-10T00:41:18;98677.28;;;9.05
42197;BMP280;27866;48.146;17.098;2023-01-10T00:45:48;98679.03;;;9.15
42197;BMP280;27866;48.146;17.098;2023-01-10T00:49:59;98685.03;;;9.16
42197;BMP280;27866;48.146;17.098;2023-01-10T00:54:13;98693.97;;;9.12
42197;BMP280;27866;48.146;17.098;2023-01-10T00:58:24;98697.25;;;9.14
42197;BMP280;27866;48.146;17.098;2023-01-10T01:02:36;98708.00;;;9.19
42197;BMP280;27866;48.146;17.098;2023-01-10T01:06:47;98726.56;;;9.13
42197;BMP280;27866;48.146;17.098;2023-01-10T01:11:00;98727.13;;;9.16
42197;BMP280;27866;48.146;17.098;2023-01-10T01:15:12;98745.34;;;9.15
42197;BMP280;27866;48.146;17.098;2023-01-10T01:19:23;98744.41;;;9.05
42197;BMP280;27866;48.146;17.098;2023-01-10T01:23:34;98749.34;;;9.08
42197;BMP280;27866;48.146;17.098;2023-01-10T01:27:46;98756.72;;;9.12
42197;BMP280;27866;48.146;17.098;2023-01-10T01:31:57;98742.88;;;9.13
42197;BMP280;27866;48.146;17.098;2023-01-10T01:36:11;98769.75;;;9.22
42197;BMP280;27866;48.146;17.098;2023-01-10T01:40:22;98762.47;;;9.26
42197;BMP280;27866;48.146;17.098;2023-01-10T01:44:37;98773.97;;;9.23
42197;BMP280;27866;48.146;17.098;2023-01-10T01:48:49;98784.56;;;9.20
42197;BMP280;27866;48.146;17.098;2023-01-10T01:53:16;98777.03;;;9.17
42197;BMP280;27866;48.146;17.098;2023-01-10T01:57:30;98785.00;;;9.25
42197;BMP280;27866;48.146;17.098;2023-01-10T02:01:46;98794.88;;;9.20
42197;BMP280;27866;48.146;17.098;2023-01-10T02:05:59;98799.19;;;9.30
42197;BMP280;27866;48.146;17.098;2023-01-10T02:14:59;98809.53;;;9.30
42197;BMP280;27866;48.146;17.098;2023-01-10T02:33:36;98826.56;;;9.32
42197;BMP280;27866;48.146;17.098;2023-01-10T02:38:13;98823.63;;;9.26
42197;BMP280;27866;48.146;17.098;2023-01-10T02:46:55;98829.84;;;9.13
42197;BMP280;27866;48.146;17.098;2023-01-10T02:51:21;98823.28;;;9.09
42197;BMP280;27866;48.146;17.098;2023-01-10T03:10:12;98847.69;;;9.05
42197;BMP280;27866;48.146;17.098;2023-01-10T03:14:26;98855.91;;;9.10
42197;BMP280;27866;48.146;17.098;2023-01-10T03:19:11;98865.41;;;9.10
42197;BMP280;27866;48.146;17.098;2023-01-10T03:23:24;98857.31;;;9.14
42197;BMP280;27866;48.146;17.098;2023-01-10T03:28:10;98869.16;;;9.16
42197;BMP280;27866;48.146;17.098;2023-01-10T03:32:26;98872.09;;;9.23
42197;BMP280;27866;48.146;17.098;2023-01-10T03:45:31;98900.28;;;9.26
42197;BMP280;27866;48.146;17.098;2023-01-10T03:49:47;98920.97;;;9.26
42197;BMP280;27866;48.146;17.098;2023-01-10T03:54:00;98930.47;;;9.25
42197;BMP280;27866;48.146;17.098;2023-01-10T03:58:12;98932.91;;;9.26
42197;BMP280;27866;48.146;17.098;2023-01-10T04:02:29;98935.75;;;9.24
42197;BMP280;27866;48.146;17.098;2023-01-10T04:06:40;98942.53;;;9.25
42197;BMP280;27866;48.146;17.098;2023-01-10T04:10:51;98953.84;;;9.34
42197;BMP280;27866;48.146;17.098;2023-01-10T04:15:04;98954.16;;;9.19
42197;BMP280;27866;48.146;17.098;2023-01-10T04:19:15;98957.47;;;9.21
42197;BMP280;27866;48.146;17.098;2023-01-10T04:23:26;98963.66;;;9.29
42197;BMP280;27866;48.146;17.098;2023-01-10T04:27:37;98965.53;;;9.17
42197;BMP280;27866;48.146;17.098;2023-01-10T04:31:49;98958.88;;;9.25
42197;BMP280;27866;48.146;17.098;2023-01-10T04:36:00;98978.72;;;9.35
42197;BMP280;27866;48.146;17.098;2023-01-10T04:40:11;98972.25;;;9.30
42197;BMP280;27866;48.146;17.098;2023-01-10T04:44:23;98993.47;;;9.12
42197;BMP280;27866;48.146;17.098;2023-01-10T04:48:35;98999.22;;;9.15
42197;BMP280;27866;48.146;17.098;2023-01-10T04:52:47;99011.81;;;9.20
42197;BMP280;27866;48.146;17.098;2023-01-10T04:56:58;99012.53;;;9.22
42197;BMP280;27866;48.146;17.098;2023-01-10T05:01:13;99006.84;;;9.17
42197;BMP280;27866;48.146;17.098;2023-01-10T05:05:24;99013.81;;;9.27
42197;BMP280;27866;48.146;17.098;2023-01-10T05:09:35;99011.44;;;9.24
42197;BMP280;27866;48.146;17.098;2023-01-10T05:13:47;99008.53;;;9.28
42197;BMP280;27866;48.146;17.098;2023-01-10T05:17:59;99025.91;;;9.26
42197;BMP280;27866;48.146;17.098;2023-01-10T05:22:10;99016.72;;;9.23
42197;BMP280;27866;48.146;17.098;2023-01-10T05:26:22;99028.34;;;9.17
42197;BMP280;27866;48.146;17.098;2023-01-10T05:30:34;99027.31;;;9.20
42197;BMP280;27866;48.146;17.098;2023-01-10T05:34:45;99020.63;;;9.28
42197;BMP280;27866;48.146;17.098;2023-01-10T05:38:56;99032.38;;;9.32
42197;BMP280;27866;48.146;17.098;2023-01-10T05:43:07;99046.81;;;9.34
42197;BMP280;27866;48.146;17.098;2023-01-10T05:47:19;99050.13;;;9.36
42197;BMP280;27866;48.146;17.098;2023-01-10T05:51:30;99059.84;;;9.33
42197;BMP280;27866;48.146;17.098;2023-01-10T05:55:41;99066.31;;;9.27
42197;BMP280;27866;48.146;17.098;2023-01-10T05:59:52;99083.91;;;9.33
42197;BMP280;27866;48.146;17.098;2023-01-10T06:04:03;99091.44;;;9.36
42197;BMP280;27866;48.146;17.098;2023-01-10T06:08:15;99111.06;;;9.39
42197;BMP280;27866;48.146;17.098;2023-01-10T06:12:27;99111.66;;;9.42
42197;BMP280;27866;48.146;17.098;2023-01-10T06:16:38;99124.72;;;9.41
42197;BMP280;27866;48.146;17.098;2023-01-10T06:20:51;99126.13;;;9.44
42197;BMP280;27866;48.146;17.098;2023-01-10T06:25:03;99130.47;;;9.44
42197;BMP280;27866;48.146;17.098;2023-01-10T06:29:14;99142.88;;;9.39
42197;BMP280;27866;48.146;17.098;2023-01-10T06:33:25;99160.09;;;9.28
42197;BMP280;27866;48.146;17.098;2023-01-10T06:37:37;99163.28;;;9.31
42197;BMP280;27866;48.146;17.098;2023-01-10T06:41:48;99172.00;;;9.41
42197;BMP280;27866;48.146;17.098;2023-01-10T06:45:59;99164.81;;;9.34
42197;BMP280;27866;48.146;17.098;2023-01-10T06:50:12;99169.84;;;9.25
42197;BMP280;27866;48.146;17.098;2023-01-10T06:54:23;99188.50;;;9.28
42197;BMP280;27866;48.146;17.098;2023-01-10T06:58:36;99181.00;;;9.25
42197;BMP280;27866;48.146;17.098;2023-01-10T07:02:50;99206.47;;;9.29
42197;BMP280;27866;48.146;17.098;2023-01-10T07:07:02;99219.84;;;9.24
42197;BMP280;27866;48.146;17.098;2023-01-10T07:11:14;99217.59;;;9.19
42197;BMP280;27866;48.146;17.098;2023-01-10T07:15:27;99237.09;;;9.23
42197;BMP280;27866;48.146;17.098;2023-01-10T07:19:40;99242.81;;;9.16
42197;BMP280;27866;48.146;17.098;2023-01-10T07:23:51;99255.44;;;9.08
42197;BMP280;27866;48.146;17.098;2023-01-10T07:28:04;99261.22;;;9.12
42197;BMP280;27866;48.146;17.098;2023-01-10T07:32:15;99271.06;;;9.29
42197;BMP280;27866;48.146;17.098;2023-01-10T07:36:26;99277.06;;;9.30
42197;BMP280;27866;48.146;17.098;2023-01-10T07:40:37;99292.78;;;9.27
42197;BMP280;27866;48.146;17.098;2023-01-10T07:44:48;99293.06;;;9.35
42197;BMP280;27866;48.146;17.098;2023-01-10T07:49:00;99314.88;;;9.31
42197;BMP280;27866;48.146;17.098;2023-01-10T07:53:11;99307.50;;;9.37
42197;BMP280;27866;48.146;17.098;2023-01-10T07:57:22;99319.28;;;9.41
42197;BMP280;27866;48.146;17.098;2023-01-10T08:01:34;99324.16;;;9.33
42197;BMP280;27866;48.146;17.098;2023-01-10T08:05:45;99334.28;;;9.36
42197;BMP280;27866;48.146;17.098;2023-01-10T08:09:56;99345.84;;;9.43
42197;BMP280;27866;48.146;17.098;2023-01-10T08:14:08;99368.78;;;9.47
42197;BMP280;27866;48.146;17.098;2023-01-10T08:18:20;99367.75;;;9.50
42197;BMP280;27866;48.146;17.098;2023-01-10T08:22:32;99377.47;;;9.46
42197;BMP280;27866;48.146;17.098;2023-01-10T08:26:43;99380.56;;;9.39
42197;BMP280;27866;48.146;17.098;2023-01-10T08:30:54;99390.72;;;9.42
42197;BMP280;27866;48.146;17.098;2023-01-10T08:35:06;99409.53;;;9.44
42197;BMP280;27866;48.146;17.098;2023-01-10T08:39:18;99408.69;;;9.43
42197;BMP280;27866;48.146;17.098;2023-01-10T08:43:32;99414.81;;;9.42
42197;BMP280;27866;48.146;17.098;2023-01-10T08:47:43;99425.13;;;9.42
42197;BMP280;27866;48.146;17.098;2023-01-10T08:51:54;99442.75;;;9.60
42197;BMP280;27866;48.146;17.098;2023-01-10T08:56:06;99440.59;;;9.55
42197;BMP280;27866;48.146;17.098;2023-01-10T09:00:18;99445.69;;;9.44
42197;BMP280;27866;48.146;17.098;2023-01-10T09:04:29;99448.38;;;9.42
42197;BMP280;27866;48.146;17.098;2023-01-10T09:08:41;99459.53;;;9.43
42197;BMP280;27866;48.146;17.098;2023-01-10T09:12:52;99472.56;;;9.54
42197;BMP280;27866;48.146;17.098;2023-01-10T09:17:07;99480.50;;;9.63
42197;BMP280;27866;48.146;17.098;2023-01-10T09:21:18;99499.44;;;9.51
42197;BMP280;27866;48.146;17.098;2023-01-10T09:25:30;99504.38;;;9.54
42197;BMP280;27866;48.146;17.098;2023-01-10T09:29:42;99511.63;;;9.61
42197;BMP280;27866;48.146;17.098;2023-01-10T09:33:53;99520.31;;;9.60
42197;BMP280;27866;48.146;17.098;2023-01-10T09:38:09;99526.81;;;9.66
42197;BMP280;27866;48.146;17.098;2023-01-10T09:42:54;99536.44;;;9.64
42197;BMP280;27866;48.146;17.098;2023-01-10T09:47:50;99537.06;;;9.67
42197;BMP280;27866;48.146;17.098;2023-01-10T09:52:36;99544.41;;;9.73
42197;BMP280;27866;48.146;17.098;2023-01-10T09:56:46;99549.69;;;9.84
42197;BMP280;27866;48.146;17.098;2023-01-10T10:01:15;99557.66;;;9.81
42197;BMP280;27866;48.146;17.098;2023-01-10T10:05:27;99556.50;;;9.84
42197;BMP280;27866;48.146;17.098;2023-01-10T10:09:39;99560.53;;;9.88
42197;BMP280;27866;48.146;17.098;2023-01-10T10:32:50;99568.19;;;10.14
42197;BMP280;27866;48.146;17.098;2023-01-10T10:37:27;99564.94;;;10.23
42197;BMP280;27866;48.146;17.098;2023-01-10T10:41:46;99576.75;;;10.14
42197;BMP280;27866;48.146;17.098;2023-01-10T10:50:30;99571.84;;;10.34
42197;BMP280;27866;48.146;17.098;2023-01-10T10:54:42;99578.53;;;10.49
42197;BMP280;27866;48.146;17.098;2023-01-10T10:58:56;99582.97;;;10.59
42197;BMP280;27866;48.146;17.098;2023-01-10T11:03:46;99592.19;;;10.51
42197;BMP280;27866;48.146;17.098;2023-01-10T11:08:04;99595.13;;;10.46
42197;BMP280;27866;48.146;17.098;2023-01-10T11:12:29;99595.75;;;10.38
42197;BMP280;27866;48.146;17.098;2023-01-10T11:16:42;99594.66;;;10.52
42197;BMP280;27866;48.146;17.098;2023-01-10T11:21:10;99603.44;;;10.62
42197;BMP280;27866;48.146;17.098;2023-01-10T11:25:22;99602.28;;;10.66
42197;BMP280;27866;48.146;17.098;2023-01-10T11:29:41;99600.13;;;10.60
42197;BMP280;27866;48.146;17.098;2023-01-10T11:33:54;99600.25;;;10.58
42197;BMP280;27866;48.146;17.098;2023-01-10T11:38:19;99598.34;;;10.72
42197;BMP280;27866;48.146;17.098;2023-01-10T11:42:39;99610.19;;;10.87
42197;BMP280;27866;48.146;17.098;2023-01-10T11:46:56;99596.81;;;10.93
42197;BMP280;27866;48.146;17.098;2023-01-10T11:51:26;99611.75;;;10.89
42197;BMP280;27866;48.146;17.098;2023-01-10T11:55:38;99605.41;;;10.93
42197;BMP280;27866;48.146;17.098;2023-01-10T11:59:56;99616.81;;;10.91
42197;BMP280;27866;48.146;17.098;2023-01-10T12:04:16;99619.94;;;10.84
42197;BMP280;27866;48.146;17.098;2023-01-10T12:08:38;99624.34;;;10.94
42197;BMP280;27866;48.146;17.098;2023-01-10T12:12:58;99627.84;;;11.05
42197;BMP280;27866;48.146;17.098;2023-01-10T12:17:29;99631.63;;;11.12
42197;BMP280;27866;48.146;17.098;2023-01-10T12:21:43;99633.50;;;11.10
42197;BMP280;27866;48.146;17.098;2023-01-10T12:25:55;99642.13;;;11.10
42197;BMP280;27866;48.146;17.098;2023-01-10T12:30:30;99636.50;;;11.16
42197;BMP280;27866;48.146;17.098;2023-01-10T12:34:52;99653.69;;;11.17
42197;BMP280;27866;48.146;17.098;2023-01-10T12:39:25;99656.16;;;11.18
42197;BMP280;27866;48.146;17.098;2023-01-10T12:43:40;99662.41;;;11.16
42197;BMP280;27866;48.146;17.098;2023-01-10T12:49:11;99672.25;;;11.11
42197;BMP280;27866;48.146;17.098;2023-01-10T12:53:22;99675.88;;;11.21
42197;BMP280;27866;48.146;17.098;2023-01-10T12:57:37;99671.94;;;11.28
42197;BMP280;27866;48.146;17.098;2023-01-10T13:01:57;99670.81;;;11.42
42197;BMP280;27866;48.146;17.098;2023-01-10T13:06:41;99688.28;;;11.51
42197;BMP280;27866;48.146;17.098;2023-01-10T13:10:56;99689.44;;;11.47
42197;BMP280;27866;48.146;17.098;2023-01-10T13:15:22;99720.78;;;11.44
42197;BMP280;27866;48.146;17.098;2023-01-10T13:19:37;99697.00;;;11.50
42197;BMP280;27866;48.146;17.098;2023-01-10T13:23:57;99704.34;;;11.56
42197;BMP280;27866;48.146;17.098;2023-01-10T13:28:21;99722.69;;;11.53
42197;BMP280;27866;48.146;17.098;2023-01-10T13:32:34;99716.34;;;11.57
42197;BMP280;27866;48.146;17.098;2023-01-10T13:36:54;99718.47;;;11.52
42197;BMP280;27866;48.146;17.098;2023-01-10T13:41:08;99716.16;;;11.59
42197;BMP280;27866;48.146;17.098;2023-01-10T13:45:40;99723.63;;;11.74
42197;BMP280;27866;48.146;17.098;2023-01-10T13:49:53;99729.16;;;11.70
42197;BMP280;27866;48.146;17.098;2023-01-10T13:58:41;99746.19;;;11.62
42197;BMP280;27866;48.146;17.098;2023-01-10T14:03:40;99756.38;;;11.65
42197;BMP280;27866;48.146;17.098;2023-01-10T14:07:52;99755.31;;;11.67
42197;BMP280;27866;48.146;17.098;2023-01-10T14:16:38;99771.75;;;11.78
42197;BMP280;27866;48.146;17.098;2023-01-10T14:21:03;99765.41;;;11.82
42197;BMP280;27866;48.146;17.098;2023-01-10T14:25:19;99763.25;;;11.76
42197;BMP280;27866;48.146;17.098;2023-01-10T14:29:32;99782.22;;;11.77
42197;BMP280;27866;48.146;17.098;2023-01-10T14:33:44;99774.56;;;11.75
42197;BMP280;27866;48.146;17.098;2023-01-10T14:37:58;99781.59;;;11.63
42197;BMP280;27866;48.146;17.098;2023-01-10T14:42:14;99795.53;;;11.73
42197;BMP280;27866;48.146;17.098;2023-01-10T14:46:54;99795.38;;;11.63
42197;BMP280;27866;48.146;17.098;2023-01-10T14:51:34;99807.63;;;11.61
42197;BMP280;27866;48.146;17.098;2023-01-10T14:55:46;99808.97;;;11.55
42197;BMP280;27866;48.146;17.098;2023-01-10T15:00:10;99822.63;;;11.46
42197;BMP280;27866;48.146;17.098;2023-01-10T15:04:27;99832.38;;;11.43
42197;BMP280;27866;48.146;17.098;2023-01-10T15:08:39;99838.50;;;11.42
42197;BMP280;27866;48.146;17.098;2023-01-10T15:12:53;99849.69;;;11.42
42197;BMP280;27866;48.146;17.098;2023-01-10T15:17:06;99851.75;;;11.37
42197;BMP280;27866;48.146;17.098;2023-01-10T15:21:23;99857.41;;;11.31
42197;BMP280;27866;48.146;17.098;2023-01-10T15:25:37;99858.94;;;11.34
42197;BMP280;27866;48.146;17.098;2023-01-10T15:29:49;99879.66;;;11.34
42197;BMP280;27866;48.146;17.098;2023-01-10T15:34:00;99882.16;;;11.35
42197;BMP280;27866;48.146;17.098;2023-01-10T15:38:21;99885.69;;;11.34
42197;BMP280;27866;48.146;17.098;2023-01-10T15:42:36;99891.72;;;11.35
42197;BMP280;27866;48.146;17.098;2023-01-10T15:46:55;99902.69;;;11.26
42197;BMP280;27866;48.146;17.098;2023-01-10T15:51:46;99892.94;;;11.17
42197;BMP280;27866;48.146;17.098;2023-01-10T15:56:10;99907.47;;;11.20
42197;BMP280;27866;48.146;17.098;2023-01-10T16:00:23;99922.09;;;11.21
42197;BMP280;27866;48.146;17.098;2023-01-10T16:04:35;99931.31;;;11.25
42197;BMP280;27866;48.146;17.098;2023-01-10T16:08:52;99937.22;;;11.27
42197;BMP280;27866;48.146;17.098;2023-01-10T16:13:14;99947.50;;;11.28
42197;BMP280;27866;48.146;17.098;2023-01-10T16:17:38;99943.56;;;11.23
42197;BMP280;27866;48.146;17.098;2023-01-10T16:21:53;99944.41;;;11.23
42197;BMP280;27866;48.146;17.098;2023-01-10T16:26:08;99955.06;;;11.31
42197;BMP280;27866;48.146;17.098;2023-01-10T16:30:23;99953.50;;;11.29
42197;BMP280;27866;48.146;17.098;2023-01-10T16:34:35;99960.88;;;11.22
42197;BMP280;27866;48.146;17.098;2023-01-10T16:38:46;99965.91;;;11.12
42197;BMP280;27866;48.146;17.098;2023-01-10T16:42:58;99984.28;;;11.09
42197;BMP280;27866;48.146;17.098;2023-01-10T16:47:27;99976.69;;;11.06
42197;BMP280;27866;48.146;17.098;2023-01-10T16:51:39;99996.41;;;11.08
42197;BMP280;27866;48.146;17.098;2023-01-10T16:55:52;99996.19;;;11.11
42197;BMP280;27866;48.146;17.098;2023-01-10T17:00:03;100000.22;;;11.15
42197;BMP280;27866;48.146;17.098;2023-01-10T17:04:22;100013.19;;;11.03
42197;BMP280;27866;48.146;17.098;2023-01-10T17:08:34;100017.72;;;10.87
42197;BMP280;27866;48.146;17.098;2023-01-10T17:12:45;100025.75;;;10.83
42197;BMP280;27866;48.146;17.098;2023-01-10T17:16:57;100025.75;;;10.83
42197;BMP280;27866;48.146;17.098;2023-01-10T17:21:16;100026.50;;;10.85
42197;BMP280;27866;48.146;17.098;2023-01-10T17:25:27;100029.72;;;10.88
42197;BMP280;27866;48.146;17.098;2023-01-10T17:29:39;100036.47;;;10.91
42197;BMP280;27866;48.146;17.098;2023-01-10T17:33:50;100039.28;;;10.88
42197;BMP280;27866;48.146;17.098;2023-01-10T17:38:01;100047.63;;;10.79
42197;BMP280;27866;48.146;17.098;2023-01-10T17:42:13;100053.75;;;10.78
42197;BMP280;27866;48.146;17.098;2023-01-10T17:46:24;100063.16;;;10.79
42197;BMP280;27866;48.146;17.098;2023-01-10T17:50:36;100063.88;;;10.81
42197;BMP280;27866;48.146;17.098;2023-01-10T17:54:47;100081.63;;;10.87
42197;BMP280;27866;48.146;17.098;2023-01-10T17:58:58;100084.44;;;10.84
42197;BMP280;27866;48.146;17.098;2023-01-10T18:03:09;100084.44;;;10.84
42197;BMP280;27866;48.146;17.098;2023-01-10T18:07:20;100091.16;;;10.86
42197;BMP280;27866;48.146;17.098;2023-01-10T18:11:32;100087.09;;;10.83
42197;BMP280;27866;48.146;17.098;2023-01-10T18:15:48;100099.88;;;10.86
42197;BMP280;27866;48.146;17.098;2023-01-10T18:20:00;100102.56;;;10.84
42197;BMP280;27866;48.146;17.098;2023-01-10T18:24:11;100105.34;;;10.81
42197;BMP280;27866;48.146;17.098;2023-01-10T18:28:32;100110.00;;;10.76
42197;BMP280;27866;48.146;17.098;2023-01-10T18:32:45;100123.47;;;10.81
42197;BMP280;27866;48.146;17.098;2023-01-10T18:36:56;100118.63;;;10.89
42197;BMP280;27866;48.146;17.098;2023-01-10T18:41:08;100129.00;;;10.89
42197;BMP280;27866;48.146;17.098;2023-01-10T18:45:19;100138.44;;;10.90
42197;BMP280;27866;48.146;17.098;2023-01-10T18:49:32;100134.28;;;10.87
42197;BMP280;27866;48.146;17.098;2023-01-10T18:53:44;100129.00;;;10.89
42197;BMP280;27866;48.146;17.098;2023-01-10T18:57:55;100136.25;;;10.84
42197;BMP280;27866;48.146;17.098;2023-01-10T19:02:13;100131.97;;;10.83
42197;BMP280;27866;48.146;17.098;2023-01-10T19:06:24;100126.69;;;10.85
42197;BMP280;27866;48.146;17.098;2023-01-10T19:10:35;100133.09;;;10.79
42197;BMP280;27866;48.146;17.098;2023-01-10T19:14:47;100128.31;;;10.73
42197;BMP280;27866;48.146;17.098;2023-01-10T19:19:02;100146.53;;;10.72
42197;BMP280;27866;48.146;17.098;2023-01-10T19:23:13;100135.19;;;10.61
42197;BMP280;27866;48.146;17.098;2023-01-10T19:27:24;100149.91;;;10.47
42197;BMP280;27866;48.146;17.098;2023-01-10T19:31:36;100149.53;;;10.53
42197;BMP280;27866;48.146;17.098;2023-01-10T19:35:47;100155.34;;;10.56
42197;BMP280;27866;48.146;17.098;2023-01-10T19:39:58;100158.97;;;10.54
42197;BMP280;27866;48.146;17.098;2023-01-10T19:44:13;100162.56;;;10.51
42197;BMP280;27866;48.146;17.098;2023-01-10T19:48:25;100163.31;;;10.53
42197;BMP280;27866;48.146;17.098;2023-01-10T19:52:36;100173.66;;;10.53
42197;BMP280;27866;48.146;17.098;2023-01-10T19:56:47;100171.91;;;10.54
42197;BMP280;27866;48.146;17.098;2023-01-10T20:01:09;100159.59;;;10.57
42197;BMP280;27866;48.146;17.098;2023-01-10T20:05:21;100170.97;;;10.55
42197;BMP280;27866;48.146;17.098;2023-01-10T20:09:32;100183.66;;;10.45
42197;BMP280;27866;48.146;17.098;2023-01-10T20:13:44;100179.84;;;10.37
42197;BMP280;27866;48.146;17.098;2023-01-10T20:17:55;100188.38;;;10.39
42197;BMP280;27866;48.146;17.098;2023-01-10T20:22:06;100188.31;;;10.41
42197;BMP280;27866;48.146;17.098;2023-01-10T20:26:20;100195.03;;;10.43
42197;BMP280;27866;48.146;17.098;2023-01-10T20:30:31;100205.22;;;10.46
42197;BMP280;27866;48.146;17.098;2023-01-10T20:34:42;100206.06;;;10.46
42197;BMP280;27866;48.146;17.098;2023-01-10T20:38:55;100203.47;;;10.33
42197;BMP280;27866;48.146;17.098;2023-01-10T20:43:07;100195.31;;;10.25
42197;BMP280;27866;48.146;17.098;2023-01-10T20:47:18;100193.25;;;10.16
42197;BMP280;27866;48.146;17.098;2023-01-10T20:51:33;100193.56;;;10.12
42197;BMP280;27866;48.146;17.098;2023-01-10T20:55:47;100198.25;;;10.06
42197;BMP280;27866;48.146;17.098;2023-01-10T20:59:58;100195.13;;;10.01
42197;BMP280;27866;48.146;17.098;2023-01-10T21:04:09;100202.88;;;10.01
42197;BMP280;27866;48.146;17.098;2023-01-10T21:08:21;100200.47;;;9.98
42197;BMP280;27866;48.146;17.098;2023-01-10T21:12:32;100194.00;;;9.91
42197;BMP280;27866;48.146;17.098;2023-01-10T21:16:44;100205.44;;;9.87
42197;BMP280;27866;48.146;17.098;2023-01-10T21:20:56;100187.34;;;9.87
42197;BMP280;27866;48.146;17.098;2023-01-10T21:25:09;100188.59;;;9.81
42197;BMP280;27866;48.146;17.098;2023-01-10T21:29:20;100189.81;;;9.75
42197;BMP280;27866;48.146;17.098;2023-01-10T21:33:32;100189.31;;;9.69
42197;BMP280;27866;48.146;17.098;2023-01-10T21:37:43;100196.22;;;9.69
42197;BMP280;27866;48.146;17.098;2023-01-10T21:41:54;100191.75;;;9.72
42197;BMP280;27866;48.146;17.098;2023-01-10T21:46:24;100197.47;;;9.77
42197;BMP280;27866;48.146;17.098;2023-01-10T21:50:37;100196.56;;;9.78
42197;BMP280;27866;48.146;17.098;2023-01-10T21:54:48;100193.97;;;9.78
42197;BMP280;27866;48.146;17.098;2023-01-10T21:59:00;100195.97;;;9.73
42197;BMP280;27866;48.146;17.098;2023-01-10T22:03:11;100199.97;;;9.78
42197;BMP280;27866;48.146;17.098;2023-01-10T22:07:24;100200.47;;;9.69
42197;BMP280;27866;48.146;17.098;2023-01-10T22:11:36;100204.25;;;9.64
42197;BMP280;27866;48.146;17.098;2023-01-10T22:15:47;100201.09;;;9.59
42197;BMP280;27866;48.146;17.098;2023-01-10T22:19:59;100194.50;;;9.54
42197;BMP280;27866;48.146;17.098;2023-01-10T22:24:10;100191.13;;;9.54
42197;BMP280;27866;48.146;17.098;2023-01-10T22:28:22;100192.59;;;9.57
42197;BMP280;27866;48.146;17.098;2023-01-10T22:32:33;100193.69;;;9.54
42197;BMP280;27866;48.146;17.098;2023-01-10T22:36:45;100186.78;;;9.39
42197;BMP280;27866;48.146;17.098;2023-01-10T22:41:03;100176.34;;;9.27
42197;BMP280;27866;48.146;17.098;2023-01-10T22:45:14;100170.06;;;9.02
42197;BMP280;27866;48.146;17.098;2023-01-10T22:49:25;100182.16;;;8.87
42197;BMP280;27866;48.146;17.098;2023-01-10T22:53:37;100179.66;;;8.70
42197;BMP280;27866;48.146;17.098;2023-01-10T22:57:48;100172.56;;;8.59
42197;BMP280;27866;48.146;17.098;2023-01-10T23:01:59;100165.66;;;8.44
42197;BMP280;27866;48.146;17.098;2023-01-10T23:06:11;100170.53;;;8.34
42197;BMP280;27866;48.146;17.098;2023-01-10T23:10:23;100151.31;;;8.24
42197;BMP280;27866;48.146;17.098;2023-01-10T23:14:34;100156.03;;;8.16
42197;BMP280;27866;48.146;17.098;2023-01-10T23:18:47;100162.22;;;8.14
42197;BMP280;27866;48.146;17.098;2023-01-10T23:22:59;100166.34;;;8.16
42197;BMP280;27866;48.146;17.098;2023-01-10T23:27:10;100157.28;;;8.10
42197;BMP280;27866;48.146;17.098;2023-01-10T23:31:22;100158.75;;;7.98
42197;BMP280;27866;48.146;17.098;2023-01-10T23:35:34;100160.56;;;7.96
42197;BMP280;27866;48.146;17.098;2023-01-10T23:39:45;100161.25;;;8.00
42197;BMP280;27866;48.146;17.098;2023-01-10T23:43:56;100157.31;;;7.93
42197;BMP280;27866;48.146;17.098;2023-01-10T23:48:08;100157.31;;;7.93
42197;BMP280;27866;48.146;17.098;2023-01-10T23:52:19;100161.34;;;7.98
42197;BMP280;27866;48.146;17.098;2023-01-10T23:56:30;100164.75;;;7.99
